Time;durP1;ratioP1;P1;durP2;ratioP2;P2;SDS_P1;SDS_P2;PMS_P1;PMS_P2;Temp;Humidity;BMP_temperature;BMP_pressure;BME280_temperature;BME280_humidity;BME280_pressure;Samples;Min_cycle;Max_cycle;Signal;HPM_P1;HPM_P2
2023/03/12 00:01:11;;;;;;;14.00;6.50;;;-1.40;99.90;;;;;;5072592;28;20482;-70
2023/03/12 00:03:39;;;;;;;11.80;6.27;;;-1.40;99.90;;;;;;5072736;28;20957;-69
2023/03/12 00:06:06;;;;;;;10.60;5.90;;;-1.40;99.90;;;;;;5071811;28;20467;-70
2023/03/12 00:08:32;;;;;;;9.70;6.23;;;-1.40;99.90;;;;;;5071169;28;20952;-69
2023/03/12 00:10:59;;;;;;;15.13;6.20;;;-1.30;99.90;;;;;;5076124;28;20460;-69
2023/03/12 00:13:27;;;;;;;6.87;5.60;;;-1.40;99.90;;;;;;5071123;28;20464;-70
2023/03/12 00:15:53;;;;;;;10.37;6.33;;;-1.40;99.90;;;;;;5071500;28;20517;-69
2023/03/12 00:18:20;;;;;;;14.03;6.23;;;-1.30;99.90;;;;;;5072906;28;20482;-69
2023/03/12 00:20:53;;;;;;;9.40;5.87;;;-1.30;99.90;;;;;;5071283;28;20452;-70
2023/03/12 00:23:20;;;;;;;15.93;7.10;;;-1.30;99.90;;;;;;5075009;28;20565;-69
2023/03/12 00:25:47;;;;;;;17.60;7.57;;;-1.30;99.90;;;;;;5072139;28;20456;-70
2023/03/12 00:28:13;;;;;;;25.47;8.57;;;-1.10;99.90;;;;;;5071288;28;20509;-70
2023/03/12 00:30:42;;;;;;;18.07;8.10;;;-1.20;99.90;;;;;;5079490;28;20456;-70
2023/03/12 00:33:09;;;;;;;24.53;8.97;;;-1.20;99.90;;;;;;5071063;28;20513;-70
2023/03/12 00:35:37;;;;;;;22.40;8.67;;;-1.20;99.90;;;;;;5070860;28;20867;-70
2023/03/12 00:38:04;;;;;;;20.73;8.20;;;-1.10;99.90;;;;;;5074551;28;20962;-70
2023/03/12 00:40:31;;;;;;;19.30;7.90;;;-1.10;99.90;;;;;;5071025;28;20726;-70
2023/03/12 00:42:57;;;;;;;13.83;7.20;;;-1.10;99.90;;;;;;5073901;28;20490;-70
2023/03/12 00:45:25;;;;;;;12.23;6.00;;;-1.00;99.90;;;;;;5084443;28;20468;-70
2023/03/12 00:47:53;;;;;;;14.03;7.20;;;-1.00;99.90;;;;;;5071002;28;20510;-70
2023/03/12 00:50:19;;;;;;;12.23;6.40;;;-1.00;99.90;;;;;;5070680;28;20451;-70
2023/03/12 00:52:46;;;;;;;14.07;7.30;;;-1.00;99.90;;;;;;5071048;28;20460;-70
2023/03/12 00:55:13;;;;;;;15.10;7.17;;;-1.00;99.90;;;;;;5072840;28;21069;-70
2023/03/12 00:57:39;;;;;;;14.30;7.20;;;-0.90;99.90;;;;;;5078810;28;20931;-70
2023/03/12 01:00:09;;;;;;;12.03;6.50;;;-0.90;99.90;;;;;;5074736;28;20452;-70
2023/03/12 01:02:35;;;;;;;11.50;6.83;;;-0.90;99.90;;;;;;5073573;28;20498;-70
2023/03/12 01:05:04;;;;;;;11.50;6.50;;;-0.90;99.90;;;;;;5071303;28;20472;-70
2023/03/12 01:07:31;;;;;;;10.13;7.07;;;-1.00;99.90;;;;;;5070994;28;20941;-69
2023/03/12 01:09:57;;;;;;;15.77;8.60;;;-1.00;99.90;;;;;;5071823;28;20455;-69
2023/03/12 01:12:24;;;;;;;13.93;7.77;;;-1.00;99.90;;;;;;5071097;28;20452;-69
2023/03/12 01:14:51;;;;;;;15.33;8.00;;;-1.00;99.90;;;;;;5072566;28;20868;-69
2023/03/12 01:17:17;;;;;;;11.17;7.40;;;-1.00;99.90;;;;;;5075147;28;20940;-69
2023/03/12 01:19:44;;;;;;;14.10;8.20;;;-1.00;99.90;;;;;;5074687;28;20466;-69
2023/03/12 01:22:12;;;;;;;13.97;8.83;;;-1.00;99.90;;;;;;5075523;28;20509;-69
2023/03/12 01:24:39;;;;;;;13.53;7.60;;;-1.00;99.90;;;;;;5085773;28;20551;-69
2023/03/12 01:27:05;;;;;;;13.80;8.70;;;-1.00;99.90;;;;;;5075028;28;20452;-69
2023/03/12 01:29:32;;;;;;;16.03;8.90;;;-1.00;99.90;;;;;;5074374;28;20982;-69
2023/03/12 01:31:59;;;;;;;17.00;8.63;;;-1.00;99.90;;;;;;5074890;28;20511;-69
2023/03/12 01:34:25;;;;;;;13.73;8.13;;;-1.00;99.90;;;;;;5083115;28;20518;-69
2023/03/12 01:36:52;;;;;;;16.00;8.67;;;-1.00;99.90;;;;;;5074754;28;20501;-69
2023/03/12 01:39:20;;;;;;;12.90;9.03;;;-1.00;99.90;;;;;;5078281;28;20459;-69
2023/03/12 01:41:47;;;;;;;19.63;10.03;;;-1.00;99.90;;;;;;5075993;28;20940;-69
2023/03/12 01:44:14;;;;;;;14.67;8.87;;;-0.90;99.90;;;;;;5074035;28;20484;-69
2023/03/12 01:46:44;;;;;;;18.90;10.30;;;-0.90;99.90;;;;;;5085146;28;20511;-69
2023/03/12 01:49:14;;;;;;;19.73;10.73;;;-1.00;99.90;;;;;;5074146;28;20452;-69
2023/03/12 01:51:45;;;;;;;19.03;9.23;;;-0.90;99.90;;;;;;5074050;28;20451;-69
2023/03/12 01:54:15;;;;;;;18.50;10.40;;;-1.00;99.90;;;;;;5080168;28;20476;-69
2023/03/12 01:56:43;;;;;;;21.53;11.13;;;-1.00;99.90;;;;;;5073989;28;20862;-69
2023/03/12 01:59:15;;;;;;;21.57;11.60;;;-1.00;99.90;;;;;;5082474;28;20448;-69
2023/03/12 02:01:43;;;;;;;21.87;11.83;;;-1.10;99.90;;;;;;5085877;28;20868;-69
2023/03/12 02:04:11;;;;;;;19.57;12.17;;;-1.10;99.90;;;;;;5073875;28;20494;-70
2023/03/12 02:06:43;;;;;;;19.70;12.30;;;-1.10;99.90;;;;;;5073903;28;20932;-69
2023/03/12 02:09:11;;;;;;;25.80;12.27;;;-1.20;99.90;;;;;;5074238;28;20469;-69
2023/03/12 02:11:38;;;;;;;19.73;12.17;;;-1.20;99.90;;;;;;5074446;28;20488;-69
2023/03/12 02:14:06;;;;;;;20.13;12.90;;;-1.20;99.90;;;;;;5073999;28;20513;-69
2023/03/12 02:16:33;;;;;;;16.90;11.80;;;-1.10;99.90;;;;;;5075216;28;20451;-70
2023/03/12 02:19:01;;;;;;;23.50;12.47;;;-1.30;99.90;;;;;;5073736;28;20448;-69
2023/03/12 02:21:32;;;;;;;21.70;12.60;;;-1.30;99.90;;;;;;5073695;28;20456;-69
2023/03/12 02:24:06;;;;;;;23.03;13.20;;;-1.30;99.90;;;;;;5077796;28;20995;-69
2023/03/12 02:26:37;;;;;;;28.27;14.17;;;-1.30;99.90;;;;;;5072331;28;20517;-69
2023/03/12 02:29:04;;;;;;;19.33;12.20;;;-1.30;99.90;;;;;;5073791;28;20448;-70
2023/03/12 02:31:37;;;;;;;21.47;13.20;;;-1.30;99.90;;;;;;5073635;28;20448;-70
2023/03/12 02:34:04;;;;;;;20.07;11.67;;;-1.30;99.90;;;;;;5074692;28;20882;-70
2023/03/12 02:36:30;;;;;;;28.33;12.80;;;-1.40;99.90;;;;;;5073469;28;20980;-70
2023/03/12 02:38:57;;;;;;;21.13;13.47;;;-1.40;99.90;;;;;;5073437;28;20460;-70
2023/03/12 02:41:26;;;;;;;22.93;13.20;;;-1.40;99.90;;;;;;5078573;28;20455;-70
2023/03/12 02:44:00;;;;;;;25.53;12.60;;;-1.40;99.90;;;;;;5073119;28;20983;-70
2023/03/12 02:46:27;;;;;;;24.63;12.70;;;-1.40;99.90;;;;;;5084905;28;20451;-70
2023/03/12 02:48:56;;;;;;;22.90;12.27;;;-1.40;99.90;;;;;;5073415;28;20452;-70
2023/03/12 02:51:22;;;;;;;21.53;12.80;;;-1.40;99.90;;;;;;5073079;28;20613;-70
2023/03/12 02:53:53;;;;;;;21.80;12.30;;;-1.30;99.90;;;;;;5078295;28;20525;-70
2023/03/12 02:56:20;;;;;;;17.60;11.97;;;-1.30;99.90;;;;;;5072586;28;20456;-70
2023/03/12 02:58:47;;;;;;;21.20;12.20;;;-1.30;99.90;;;;;;5073195;28;20454;-70
2023/03/12 03:01:15;;;;;;;20.30;12.97;;;-1.30;99.90;;;;;;5074027;28;20509;-70
2023/03/12 03:03:42;;;;;;;20.73;11.83;;;-1.20;99.90;;;;;;5074929;28;20549;-70
2023/03/12 03:06:08;;;;;;;21.83;12.67;;;-1.20;99.90;;;;;;5072883;28;20451;-70
2023/03/12 03:08:35;;;;;;;33.33;12.90;;;-1.10;99.90;;;;;;5080333;28;20521;-70
2023/03/12 03:11:03;;;;;;;25.43;12.10;;;-1.10;99.90;;;;;;5072346;28;20456;-70
2023/03/12 03:13:30;;;;;;;22.03;13.40;;;-1.20;99.90;;;;;;5072954;28;20472;-70
2023/03/12 03:15:58;;;;;;;21.07;12.43;;;-1.30;99.90;;;;;;5072528;28;21021;-70
2023/03/12 03:18:26;;;;;;;25.63;12.80;;;-1.30;99.90;;;;;;5072909;28;20452;-70
2023/03/12 03:20:56;;;;;;;18.70;12.07;;;-1.40;99.90;;;;;;5072206;28;20452;-70
2023/03/12 03:23:23;;;;;;;23.57;11.60;;;-1.40;99.90;;;;;;5081020;28;20487;-70
2023/03/12 03:25:51;;;;;;;25.93;13.80;;;-1.30;99.90;;;;;;5083357;28;20504;-70
2023/03/12 03:28:18;;;;;;;19.00;12.10;;;-1.40;99.90;;;;;;5079097;28;21017;-70
2023/03/12 03:30:45;;;;;;;19.87;12.63;;;-1.40;99.90;;;;;;5072152;28;20456;-70
2023/03/12 03:33:12;;;;;;;25.57;13.40;;;-1.40;99.90;;;;;;5074872;28;20478;-70
2023/03/12 03:35:40;;;;;;;25.27;13.07;;;-1.40;99.90;;;;;;5072117;28;20516;-70
2023/03/12 03:38:07;;;;;;;18.23;12.50;;;-1.30;99.90;;;;;;5078980;28;20513;-70
2023/03/12 03:40:34;;;;;;;22.40;12.67;;;-1.30;99.90;;;;;;5072076;28;20869;-70
2023/03/12 03:43:00;;;;;;;25.40;11.73;;;-1.20;99.90;;;;;;5072050;28;20978;-70
2023/03/12 03:45:27;;;;;;;26.77;11.87;;;-1.20;99.90;;;;;;5082600;28;20467;-70
2023/03/12 03:47:54;;;;;;;21.30;12.60;;;-1.10;99.90;;;;;;5085898;28;20885;-70
2023/03/12 03:50:21;;;;;;;21.20;12.30;;;-1.10;99.90;;;;;;5071829;28;20448;-70
2023/03/12 03:52:48;;;;;;;22.17;12.00;;;-1.10;99.90;;;;;;5072043;28;20585;-70
2023/03/12 03:55:15;;;;;;;21.80;12.40;;;-1.00;99.90;;;;;;5078458;28;20483;-70
2023/03/12 03:57:42;;;;;;;24.00;12.80;;;-1.00;99.90;;;;;;5071415;28;21037;-70
2023/03/12 04:00:11;;;;;;;16.80;11.30;;;-0.90;99.90;;;;;;5071744;28;20502;-70
2023/03/12 04:02:39;;;;;;;27.77;12.10;;;-1.10;99.90;;;;;;5076288;28;20908;-70
2023/03/12 04:05:06;;;;;;;18.13;11.33;;;-1.10;99.90;;;;;;5079506;28;20537;-70
2023/03/12 04:07:33;;;;;;;19.27;12.17;;;-1.10;99.90;;;;;;5071894;28;20593;-70
2023/03/12 04:10:01;;;;;;;19.03;12.57;;;-1.10;99.90;;;;;;5076155;28;20462;-70
2023/03/12 04:12:28;;;;;;;19.53;12.00;;;-1.10;99.90;;;;;;5073916;28;20484;-70
2023/03/12 04:14:55;;;;;;;21.83;12.27;;;-1.00;99.90;;;;;;5071425;28;20468;-70
2023/03/12 04:17:22;;;;;;;19.53;11.57;;;-1.00;99.90;;;;;;5071817;28;20456;-70
2023/03/12 04:19:49;;;;;;;30.23;13.77;;;-0.90;99.90;;;;;;5071419;28;20457;-70
2023/03/12 04:22:16;;;;;;;22.50;12.80;;;-0.90;99.90;;;;;;5072225;28;20808;-70
2023/03/12 04:24:42;;;;;;;19.93;12.53;;;-0.90;99.90;;;;;;5081948;28;21029;-70
2023/03/12 04:27:10;;;;;;;24.60;11.83;;;-0.80;99.90;;;;;;5071472;28;21001;-70
2023/03/12 04:29:38;;;;;;;22.33;11.17;;;-0.80;99.90;;;;;;5071122;28;20452;-70
2023/03/12 04:32:05;;;;;;;19.90;11.97;;;-0.80;99.90;;;;;;5075288;28;20457;-70
2023/03/12 04:34:32;;;;;;;19.40;11.80;;;-0.90;99.90;;;;;;5075718;28;20513;-70
2023/03/12 04:37:00;;;;;;;16.90;11.20;;;-0.90;99.90;;;;;;5075375;28;20517;-70
2023/03/12 04:39:27;;;;;;;22.00;11.80;;;-1.00;99.90;;;;;;5073281;28;20460;-70
2023/03/12 04:41:53;;;;;;;17.23;11.90;;;-1.00;99.90;;;;;;5079424;28;20442;-70
2023/03/12 04:44:21;;;;;;;15.97;10.80;;;-1.00;99.90;;;;;;5071065;28;20518;-70
2023/03/12 04:46:48;;;;;;;20.90;12.00;;;-1.00;99.90;;;;;;5090568;28;20541;-70
2023/03/12 04:49:15;;;;;;;20.43;11.17;;;-1.00;99.90;;;;;;5070565;28;20497;-70
2023/03/12 04:51:41;;;;;;;27.13;11.77;;;-1.00;99.90;;;;;;5075387;28;20478;-70
2023/03/12 04:54:08;;;;;;;19.47;11.87;;;-1.00;99.90;;;;;;5073663;28;20468;-70
2023/03/12 04:56:35;;;;;;;17.93;11.63;;;-1.00;99.90;;;;;;5070840;28;20498;-70
2023/03/12 04:59:02;;;;;;;21.57;11.13;;;-1.00;99.90;;;;;;5071027;28;20443;-70
2023/03/12 05:01:31;;;;;;;18.10;11.73;;;-1.00;99.90;;;;;;5074457;28;20480;-70
2023/03/12 05:03:58;;;;;;;19.53;10.73;;;-1.00;99.90;;;;;;5071307;28;20538;-70
2023/03/12 05:06:25;;;;;;;17.70;10.93;;;-1.00;99.90;;;;;;5071297;28;20448;-70
2023/03/12 05:08:53;;;;;;;17.03;11.40;;;-1.00;99.90;;;;;;5072850;28;21001;-70
2023/03/12 05:11:20;;;;;;;19.43;10.83;;;-0.90;99.90;;;;;;5071088;28;20445;-70
2023/03/12 05:13:47;;;;;;;16.77;11.30;;;-0.90;99.90;;;;;;5071012;28;20464;-70
2023/03/12 05:16:15;;;;;;;22.03;12.23;;;-0.90;99.90;;;;;;5071168;28;20797;-71
2023/03/12 05:18:43;;;;;;;24.10;13.03;;;-0.80;99.90;;;;;;5070789;28;20444;-70
2023/03/12 05:21:13;;;;;;;19.00;11.40;;;-0.80;99.90;;;;;;5070798;28;20497;-70
2023/03/12 05:23:41;;;;;;;34.43;12.27;;;-0.80;99.90;;;;;;5083560;28;20482;-70
2023/03/12 05:26:08;;;;;;;21.60;11.20;;;-0.70;99.90;;;;;;5071497;28;20471;-70
2023/03/12 05:28:34;;;;;;;18.60;10.47;;;-0.70;99.90;;;;;;5070844;28;20452;-70
2023/03/12 05:31:01;;;;;;;16.40;10.20;;;-0.70;99.90;;;;;;5070709;28;20448;-70
2023/03/12 05:33:28;;;;;;;18.43;11.33;;;-0.70;99.90;;;;;;5070704;28;20468;-70
2023/03/12 05:35:56;;;;;;;19.80;10.80;;;-0.70;99.90;;;;;;5070683;28;20834;-70
2023/03/12 05:38:23;;;;;;;15.47;10.20;;;-0.70;99.90;;;;;;5070954;28;20452;-70
2023/03/12 05:40:53;;;;;;;14.00;10.10;;;-0.70;99.90;;;;;;5072986;28;20517;-70
2023/03/12 05:43:20;;;;;;;20.93;10.20;;;-0.70;99.90;;;;;;5070612;28;20819;-70
2023/03/12 05:45:47;;;;;;;23.40;10.20;;;-0.70;99.90;;;;;;5084823;28;20493;-70
2023/03/12 05:48:14;;;;;;;17.73;9.70;;;-0.70;99.90;;;;;;5070604;28;20455;-70
2023/03/12 05:50:40;;;;;;;13.73;9.20;;;-0.70;99.90;;;;;;5070515;28;20447;-70
2023/03/12 05:53:09;;;;;;;19.03;9.60;;;-0.60;99.90;;;;;;5079698;28;20929;-70
2023/03/12 05:55:36;;;;;;;18.60;9.87;;;-0.60;99.90;;;;;;5074679;28;20478;-70
2023/03/12 05:58:03;;;;;;;21.13;9.50;;;-0.60;99.90;;;;;;5070084;28;20444;-70
2023/03/12 06:00:30;;;;;;;15.50;9.40;;;-0.60;99.90;;;;;;5071554;28;20455;-70
2023/03/12 06:02:57;;;;;;;16.53;9.27;;;-0.60;99.90;;;;;;5077567;28;20452;-69
2023/03/12 06:05:24;;;;;;;17.03;9.73;;;-0.60;99.90;;;;;;5073944;28;20487;-69
2023/03/12 06:07:51;;;;;;;20.17;10.10;;;-0.60;99.90;;;;;;5078055;28;20849;-69
2023/03/12 06:10:19;;;;;;;15.83;8.20;;;-0.60;99.90;;;;;;5073590;28;20463;-69
2023/03/12 06:12:45;;;;;;;17.47;8.53;;;-0.50;99.90;;;;;;5073614;28;20471;-71
2023/03/12 06:15:12;;;;;;;11.33;8.70;;;-0.60;99.90;;;;;;5073444;28;20499;-71
2023/03/12 06:17:39;;;;;;;16.50;9.63;;;-0.60;99.90;;;;;;5073826;28;20497;-71
2023/03/12 06:20:07;;;;;;;20.37;8.77;;;-0.50;99.90;;;;;;5073425;28;20447;-73
2023/03/12 06:22:34;;;;;;;15.33;8.60;;;-0.60;99.90;;;;;;5077697;28;20459;-73
2023/03/12 06:25:00;;;;;;;15.33;9.90;;;-0.60;99.90;;;;;;5080299;28;20534;-73
2023/03/12 06:27:28;;;;;;;11.97;8.30;;;-0.60;99.90;;;;;;5073548;28;20490;-73
2023/03/12 06:29:55;;;;;;;14.83;9.53;;;-0.60;99.90;;;;;;5072957;28;20816;-73
2023/03/12 06:32:22;;;;;;;16.27;8.40;;;-0.50;99.90;;;;;;5073624;28;20510;-73
2023/03/12 06:34:49;;;;;;;10.63;8.27;;;-0.50;99.90;;;;;;5073218;28;20472;-73
2023/03/12 06:37:15;;;;;;;15.33;8.63;;;-0.50;99.90;;;;;;5073677;28;20452;-73
2023/03/12 06:39:42;;;;;;;19.63;8.40;;;-0.50;99.90;;;;;;5076686;28;20468;-74
2023/03/12 06:42:11;;;;;;;12.30;7.73;;;-0.50;99.90;;;;;;5074327;28;20521;-73
2023/03/12 06:44:39;;;;;;;17.77;9.10;;;-0.60;99.90;;;;;;5073355;28;20484;-73
2023/03/12 06:47:06;;;;;;;15.27;8.27;;;-0.60;99.90;;;;;;5090704;28;20502;-73
2023/03/12 06:49:34;;;;;;;23.30;9.50;;;-0.50;99.90;;;;;;5080040;28;20502;-73
2023/03/12 06:52:01;;;;;;;16.00;8.23;;;-0.50;99.90;;;;;;5073012;28;20543;-73
2023/03/12 06:54:27;;;;;;;11.23;8.20;;;-0.40;99.90;;;;;;5073001;28;20918;-73
2023/03/12 06:56:54;;;;;;;16.83;8.43;;;-0.40;99.90;;;;;;5072334;28;20464;-73
2023/03/12 06:59:21;;;;;;;15.90;8.07;;;-0.40;99.90;;;;;;5072972;28;20464;-73
2023/03/12 07:01:49;;;;;;;17.97;9.40;;;-0.40;99.90;;;;;;5078027;28;20821;-73
2023/03/12 07:04:16;;;;;;;14.80;9.23;;;-0.30;99.90;;;;;;5072828;28;20491;-73
2023/03/12 07:06:43;;;;;;;19.30;10.57;;;-0.30;99.90;;;;;;5072783;28;20534;-73
2023/03/12 07:09:09;;;;;;;22.43;12.30;;;-0.30;99.90;;;;;;5073154;28;20463;-73
2023/03/12 07:11:36;;;;;;;18.50;9.73;;;-0.30;99.90;;;;;;5072742;28;20866;-73
2023/03/12 07:14:03;;;;;;;16.27;9.50;;;-0.20;99.90;;;;;;5072587;28;20523;-74
2023/03/12 07:16:30;;;;;;;16.70;9.20;;;-0.20;99.90;;;;;;5072434;28;20452;-74
2023/03/12 07:18:58;;;;;;;13.70;8.13;;;-0.20;99.90;;;;;;5072254;28;21033;-73
2023/03/12 07:21:25;;;;;;;14.80;9.57;;;-0.10;99.90;;;;;;5073096;28;20451;-76
2023/03/12 07:23:52;;;;;;;13.33;8.27;;;-0.20;99.90;;;;;;5085303;28;20458;-73
2023/03/12 07:26:19;;;;;;;15.27;9.07;;;-0.10;99.90;;;;;;5072666;28;20491;-73
2023/03/12 07:28:46;;;;;;;15.27;9.23;;;-0.10;99.90;;;;;;5072445;28;20452;-72
2023/03/12 07:31:13;;;;;;;18.90;10.10;;;-0.10;99.90;;;;;;5073069;28;20456;-73
2023/03/12 07:33:40;;;;;;;12.90;8.57;;;0.00;99.90;;;;;;5079991;28;20468;-73
2023/03/12 07:36:08;;;;;;;14.97;9.23;;;0.10;99.90;;;;;;5072494;28;20467;-74
2023/03/12 07:38:35;;;;;;;15.53;9.33;;;0.10;99.90;;;;;;5072932;28;20448;-73
2023/03/12 07:41:01;;;;;;;16.20;9.27;;;0.10;99.90;;;;;;5072676;28;20501;-73
2023/03/12 07:43:28;;;;;;;15.87;8.70;;;0.10;99.90;;;;;;5071898;28;20987;-73
2023/03/12 07:45:55;;;;;;;13.13;9.23;;;0.10;99.90;;;;;;5088167;28;20485;-73
2023/03/12 07:48:21;;;;;;;18.00;9.37;;;0.10;99.90;;;;;;5072357;28;20479;-73
2023/03/12 07:50:48;;;;;;;17.23;9.67;;;0.20;99.90;;;;;;5071869;28;20448;-73
2023/03/12 07:53:16;;;;;;;16.10;9.37;;;0.10;99.90;;;;;;5072404;28;20452;-73
2023/03/12 07:55:44;;;;;;;13.60;9.40;;;0.10;99.90;;;;;;5072635;28;20850;-74
2023/03/12 07:58:11;;;;;;;15.20;9.30;;;0.10;99.90;;;;;;5072415;28;20478;-77
2023/03/12 08:00:38;;;;;;;18.70;8.90;;;0.20;99.90;;;;;;5072029;28;20452;-73
2023/03/12 08:03:05;;;;;;;17.07;9.73;;;0.20;99.90;;;;;;5076172;28;20448;-75
2023/03/12 08:05:31;;;;;;;16.23;8.97;;;0.10;99.90;;;;;;5076533;28;20479;-74
2023/03/12 08:07:58;;;;;;;14.43;9.83;;;0.20;99.90;;;;;;5078678;28;20488;-73
2023/03/12 08:10:26;;;;;;;22.00;10.97;;;0.30;99.90;;;;;;5074326;28;21000;-75
2023/03/12 08:12:52;;;;;;;16.37;9.40;;;0.30;99.90;;;;;;5077782;28;20489;-75
2023/03/12 08:15:20;;;;;;;17.67;10.23;;;0.40;99.90;;;;;;5075407;28;20541;-76
2023/03/12 08:17:47;;;;;;;14.00;9.63;;;0.40;99.90;;;;;;5071603;28;20620;-75
2023/03/12 08:20:14;;;;;;;16.53;9.77;;;0.40;99.90;;;;;;5072932;28;20824;-76
2023/03/12 08:22:42;;;;;;;19.63;10.67;;;0.50;99.90;;;;;;5078346;28;20483;-74
2023/03/12 08:25:10;;;;;;;17.03;10.40;;;0.60;99.90;;;;;;5083590;28;20575;-74
2023/03/12 08:27:39;;;;;;;13.63;10.17;;;0.60;99.90;;;;;;5079147;28;20455;-74
2023/03/12 08:30:06;;;;;;;17.37;10.20;;;0.60;99.90;;;;;;5075711;28;20840;-75
2023/03/12 08:32:33;;;;;;;16.70;10.33;;;0.70;99.90;;;;;;5075897;28;20514;-75
2023/03/12 08:35:00;;;;;;;24.37;9.63;;;0.80;99.90;;;;;;5073167;28;20472;-74
2023/03/12 08:37:26;;;;;;;17.83;9.40;;;0.70;99.90;;;;;;5078064;28;20478;-75
2023/03/12 08:39:53;;;;;;;14.63;9.53;;;0.70;99.90;;;;;;5072495;28;20467;-75
2023/03/12 08:42:20;;;;;;;18.97;9.37;;;0.70;99.90;;;;;;5078742;28;20462;-75
2023/03/12 08:44:48;;;;;;;22.37;10.50;;;0.70;99.90;;;;;;5081447;28;21036;-77
2023/03/12 08:47:14;;;;;;;14.20;9.13;;;0.70;99.90;;;;;;5078486;28;20478;-75
2023/03/12 08:49:41;;;;;;;19.60;9.20;;;0.80;99.90;;;;;;5080251;28;20994;-75
2023/03/12 08:52:08;;;;;;;17.23;9.43;;;0.80;99.90;;;;;;5090459;28;20458;-74
2023/03/12 08:54:34;;;;;;;20.90;10.17;;;0.80;99.90;;;;;;5080703;28;20541;-75
2023/03/12 08:57:01;;;;;;;13.00;9.80;;;0.90;99.90;;;;;;5081679;28;20456;-74
2023/03/12 08:59:27;;;;;;;16.80;9.90;;;1.00;99.90;;;;;;5072588;28;20455;-75
2023/03/12 09:01:55;;;;;;;20.07;10.23;;;0.90;99.90;;;;;;5083588;28;20455;-75
2023/03/12 09:04:22;;;;;;;23.03;10.50;;;1.00;99.90;;;;;;5071079;28;20476;-75
2023/03/12 09:06:49;;;;;;;21.53;10.23;;;1.10;99.90;;;;;;5075180;28;20538;-75
2023/03/12 09:09:15;;;;;;;31.17;11.23;;;1.10;99.90;;;;;;5073169;28;20944;-74
2023/03/12 09:11:42;;;;;;;20.53;10.17;;;1.00;99.90;;;;;;5071383;28;20460;-75
2023/03/12 09:14:09;;;;;;;17.77;10.77;;;1.10;99.90;;;;;;5071982;28;20475;-75
2023/03/12 09:16:35;;;;;;;21.40;12.33;;;1.20;99.90;;;;;;5084828;28;20452;-75
2023/03/12 09:19:04;;;;;;;18.43;10.60;;;1.20;99.90;;;;;;5075810;28;20529;-75
2023/03/12 09:21:31;;;;;;;22.87;11.00;;;1.20;99.90;;;;;;5075466;28;20450;-79
2023/03/12 09:23:57;;;;;;;20.77;11.83;;;1.20;99.90;;;;;;5082272;28;20508;-76
2023/03/12 09:26:24;;;;;;;25.90;13.17;;;1.20;99.90;;;;;;5077456;28;20487;-76
2023/03/12 09:28:51;;;;;;;20.77;12.13;;;1.20;99.90;;;;;;5073004;28;20513;-76
2023/03/12 09:31:17;;;;;;;16.53;11.60;;;1.20;99.90;;;;;;5073190;28;20448;-76
2023/03/12 09:33:44;;;;;;;20.60;12.07;;;1.20;99.90;;;;;;5075695;28;20471;-76
2023/03/12 09:36:12;;;;;;;22.00;12.30;;;1.20;99.90;;;;;;5085718;28;20451;-75
2023/03/12 09:38:39;;;;;;;22.73;12.70;;;1.20;99.90;;;;;;5095308;28;20451;-76
2023/03/12 09:41:14;;;;;;;19.90;11.70;;;1.20;99.90;;;;;;5077515;28;20447;-76
2023/03/12 09:43:45;;;;;;;24.33;15.20;;;1.20;99.90;;;;;;5080644;28;20467;-76
2023/03/12 09:46:17;;;;;;;26.10;13.27;;;1.20;99.90;;;;;;5073602;28;21035;-73
2023/03/12 09:48:45;;;;;;;21.60;13.00;;;1.20;99.90;;;;;;5077758;28;20880;-75
2023/03/12 09:51:22;;;;;;;21.20;11.93;;;1.20;99.90;;;;;;5087056;28;20460;-75
2023/03/12 09:53:51;;;;;;;23.27;13.60;;;1.40;99.90;;;;;;5073705;28;20529;-76
2023/03/12 09:56:21;;;;;;;21.70;12.50;;;1.30;99.90;;;;;;5084565;28;20940;-75
2023/03/12 09:58:49;;;;;;;22.47;11.80;;;1.40;99.90;;;;;;5078989;28;20494;-76
2023/03/12 10:01:32;;;;;;;22.53;13.27;;;1.50;99.90;;;;;;5077072;28;20455;-75
2023/03/12 10:04:25;;;;;;;20.67;13.23;;;1.50;99.90;;;;;;5081887;28;20562;-75
2023/03/12 10:06:59;;;;;;;21.93;10.67;;;1.60;99.90;;;;;;5080238;28;20486;-75
2023/03/12 10:09:41;;;;;;;29.40;13.27;;;1.70;99.90;;;;;;5082478;28;20640;-75
2023/03/12 10:12:19;;;;;;;19.27;11.10;;;1.70;99.90;;;;;;5083184;28;20494;-75
2023/03/12 10:15:02;;;;;;;21.50;12.33;;;1.70;99.90;;;;;;5080438;28;20515;-74
2023/03/12 10:17:44;;;;;;;22.43;11.90;;;1.80;99.90;;;;;;5074200;28;20491;-75
2023/03/12 10:20:41;;;;;;;22.20;12.03;;;1.90;99.90;;;;;;5082870;28;20492;-75
2023/03/12 10:23:16;;;;;;;23.50;14.20;;;2.00;99.90;;;;;;5074622;28;20465;-76
2023/03/12 10:25:50;;;;;;;19.27;13.13;;;2.00;99.90;;;;;;5082106;28;20488;-76
2023/03/12 10:28:19;;;;;;;24.97;14.33;;;2.10;99.90;;;;;;5083995;28;20452;-75
2023/03/12 10:30:50;;;;;;;21.03;12.80;;;2.10;99.90;;;;;;5088536;28;20512;-75
2023/03/12 10:33:19;;;;;;;24.10;13.70;;;2.20;99.90;;;;;;5079703;28;20486;-76
2023/03/12 10:35:46;;;;;;;27.20;14.00;;;2.30;99.90;;;;;;5084454;28;20539;-75
2023/03/12 10:38:17;;;;;;;28.20;13.43;;;2.30;99.90;;;;;;5082915;28;20507;-75
2023/03/12 10:40:44;;;;;;;23.40;14.33;;;2.30;99.90;;;;;;5078822;28;20447;-75
2023/03/12 10:43:11;;;;;;;26.23;14.47;;;2.30;99.90;;;;;;5078995;28;20454;-76
2023/03/12 10:45:43;;;;;;;27.30;15.50;;;2.30;99.90;;;;;;5083535;28;20480;-75
2023/03/12 10:48:17;;;;;;;27.73;15.87;;;2.30;99.90;;;;;;5071856;28;20457;-75
2023/03/12 10:50:44;;;;;;;30.70;16.60;;;2.40;99.90;;;;;;5080295;28;20454;-75
2023/03/12 10:53:21;;;;;;;28.03;14.67;;;2.50;99.90;;;;;;5082851;28;20531;-77
2023/03/12 10:55:59;;;;;;;27.80;14.97;;;2.50;99.90;;;;;;5079261;28;20452;-76
2023/03/12 10:58:26;;;;;;;24.00;14.83;;;2.60;99.90;;;;;;5085016;28;20461;-77
2023/03/12 11:00:58;;;;;;;24.90;15.40;;;2.70;99.90;;;;;;5082278;28;20600;-75
2023/03/12 11:03:25;;;;;;;28.10;15.83;;;2.70;99.90;;;;;;5084523;28;21071;-76
2023/03/12 11:05:54;;;;;;;26.10;15.40;;;2.70;99.90;;;;;;5080451;28;20487;-74
2023/03/12 11:08:26;;;;;;;30.17;16.07;;;2.70;99.90;;;;;;5077794;28;20456;-74
2023/03/12 11:10:54;;;;;;;30.60;16.10;;;2.80;99.90;;;;;;5080595;28;20955;-74
2023/03/12 11:13:29;;;;;;;25.23;15.40;;;2.80;99.90;;;;;;5077040;28;20547;-73
2023/03/12 11:15:58;;;;;;;28.50;14.77;;;2.80;99.90;;;;;;5080268;28;20449;-76
2023/03/12 11:18:27;;;;;;;29.00;15.90;;;2.80;99.90;;;;;;5079100;28;20459;-74
2023/03/12 11:20:56;;;;;;;31.13;16.70;;;2.80;99.90;;;;;;5078512;28;20862;-75
2023/03/12 11:23:27;;;;;;;36.13;18.77;;;2.90;99.90;;;;;;5084069;28;20449;-75
2023/03/12 11:25:57;;;;;;;31.70;17.37;;;3.00;99.90;;;;;;5090559;28;20482;-75
2023/03/12 11:28:27;;;;;;;34.87;17.87;;;3.10;99.90;;;;;;5077816;28;20512;-75
2023/03/12 11:30:58;;;;;;;41.77;19.43;;;3.10;99.90;;;;;;5072061;28;20489;-74
2023/03/12 11:33:24;;;;;;;36.77;19.63;;;3.00;99.90;;;;;;5072459;28;21204;-75
2023/03/12 11:36:04;;;;;;;40.83;20.10;;;3.00;99.90;;;;;;5073937;28;20452;-75
2023/03/12 11:38:38;;;;;;;36.03;18.10;;;3.00;99.90;;;;;;5074194;28;20512;-75
2023/03/12 11:41:19;;;;;;;30.87;17.00;;;3.00;99.90;;;;;;5080587;28;21028;-75
2023/03/12 11:43:56;;;;;;;29.53;16.63;;;3.00;99.90;;;;;;5078956;28;20504;-76
2023/03/12 11:46:35;;;;;;;29.10;15.90;;;2.90;99.90;;;;;;5072706;28;20482;-74
2023/03/12 11:49:12;;;;;;;31.23;16.80;;;3.00;99.90;;;;;;5078439;28;20488;-76
2023/03/12 11:51:51;;;;;;;32.17;18.00;;;3.10;99.90;;;;;;5088067;28;20451;-75
2023/03/12 11:54:52;;;;;;;31.53;18.00;;;3.10;99.90;;;;;;5082677;28;20512;-75
2023/03/12 11:57:28;;;;;;;30.30;18.17;;;3.20;99.90;;;;;;5067033;28;20848;-76
2023/03/12 12:00:11;;;;;;;35.23;19.73;;;3.20;99.90;;;;;;5076474;28;20461;-75
2023/03/12 12:02:57;;;;;;;40.97;17.87;;;3.20;99.90;;;;;;5081417;28;20825;-76
2023/03/12 12:05:41;;;;;;;41.60;19.37;;;3.10;99.90;;;;;;5072743;28;20504;-76
2023/03/12 12:08:38;;;;;;;37.27;19.97;;;3.10;99.90;;;;;;5075529;28;20512;-77
2023/03/12 12:11:13;;;;;;;120.27;48.07;;;3.10;99.90;;;;;;5077216;28;20978;-75
2023/03/12 12:13:52;;;;;;;39.03;21.10;;;3.20;99.90;;;;;;5086970;28;20895;-76
2023/03/12 12:16:28;;;;;;;38.53;20.80;;;3.30;99.90;;;;;;5076284;28;20451;-76
2023/03/12 12:19:05;;;;;;;38.40;21.13;;;3.20;99.90;;;;;;5075826;28;20454;-75
2023/03/12 12:21:49;;;;;;;37.97;19.33;;;3.30;99.90;;;;;;5078549;28;20582;-75
2023/03/12 12:24:33;;;;;;;38.87;21.07;;;3.50;99.90;;;;;;5086199;28;20477;-75
2023/03/12 12:27:07;;;;;;;65.53;28.40;;;3.70;99.90;;;;;;5084752;28;20541;-75
2023/03/12 12:29:44;;;;;;;35.63;20.00;;;3.90;99.90;;;;;;5083862;28;21015;-76
2023/03/12 12:32:16;;;;;;;44.40;21.30;;;4.10;99.90;;;;;;5072143;28;21197;-76
2023/03/12 12:35:05;;;;;;;42.13;21.87;;;4.10;99.90;;;;;;5075014;28;20479;-76
2023/03/12 12:37:46;;;;;;;43.50;23.40;;;4.20;99.90;;;;;;5077653;28;21025;-75
2023/03/12 12:40:22;;;;;;;37.77;21.50;;;4.30;99.90;;;;;;5074075;28;20832;-76
2023/03/12 12:42:57;;;;;;;37.03;22.00;;;4.30;99.90;;;;;;5076289;28;20483;-76
2023/03/12 12:45:26;;;;;;;36.63;21.80;;;4.40;99.90;;;;;;5077528;28;20233;-76